createdAt,value
2023-02-13T00:01:19.126Z,67.99
2023-02-13T00:03:20.778Z,68.58
2023-02-13T00:05:22.397Z,68.41
2023-02-13T00:07:23.976Z,67.67
2023-02-13T00:09:25.636Z,68.28
2023-02-13T00:11:27.293Z,68.26
2023-02-13T00:13:28.952Z,68.42
2023-02-13T00:15:30.612Z,68.27
2023-02-13T00:17:32.667Z,68.13
2023-02-13T00:19:34.201Z,67.99
2023-02-13T00:21:35.859Z,67.52
2023-02-13T00:23:38.535Z,68.33
2023-02-13T00:25:40.152Z,68.24
2023-02-13T00:27:41.747Z,68.14
2023-02-13T00:29:43.508Z,68.43
2023-02-13T00:31:45.267Z,67.52
2023-02-13T00:33:47.300Z,67.32
2023-02-13T00:35:48.915Z,67.80
2023-02-13T00:37:50.584Z,68.05
2023-02-13T00:39:52.518Z,68.28
2023-02-13T00:41:54.209Z,68.66
2023-02-13T00:43:55.834Z,68.10
2023-02-13T00:45:58.998Z,67.59
2023-02-13T00:48:00.656Z,67.23
2023-02-13T00:50:02.275Z,67.01
2023-02-13T00:52:04.068Z,67.28
2023-02-13T00:54:05.794Z,67.74
2023-02-13T00:56:07.739Z,67.53
2023-02-13T00:58:09.378Z,67.38
2023-02-13T01:00:11.605Z,67.52
2023-02-13T01:02:13.316Z,67.89
2023-02-13T01:04:14.946Z,67.82
2023-02-13T01:06:16.615Z,67.29
2023-02-13T01:08:20.198Z,67.68
2023-02-13T01:10:21.827Z,67.62
2023-02-13T01:12:23.665Z,67.56
2023-02-13T01:14:25.299Z,68.14
2023-02-13T01:16:26.905Z,67.92
2023-02-13T01:18:28.660Z,67.95
2023-02-13T01:20:30.741Z,67.73
2023-02-13T01:22:32.312Z,67.95
2023-02-13T01:24:34.268Z,68.09
2023-02-13T01:26:36.095Z,68.32
2023-02-13T01:28:37.858Z,68.92
2023-02-13T01:30:39.591Z,68.55
2023-02-13T01:32:42.178Z,68.32
2023-02-13T01:34:43.775Z,68.61
2023-02-13T01:36:45.323Z,68.73
2023-02-13T01:38:46.965Z,68.90
2023-02-13T01:40:50.370Z,68.72
2023-02-13T01:42:52.086Z,68.95
2023-02-13T01:45:02.705Z,68.88
2023-02-13T01:47:04.337Z,68.53
2023-02-13T01:49:19.290Z,68.82
2023-02-13T01:51:25.517Z,69.60
2023-02-13T01:53:53.742Z,69.20
2023-02-13T01:56:02.410Z,69.60
2023-02-13T01:58:10.311Z,69.48
2023-02-13T02:00:17.012Z,69.16
2023-02-13T02:02:19.817Z,69.75
2023-02-13T02:04:36.148Z,69.25
2023-02-13T02:06:42.113Z,68.76
2023-02-13T02:08:44.182Z,69.21
2023-02-13T02:10:45.943Z,69.32
2023-02-13T02:13:18.738Z,69.04
2023-02-13T02:15:21.411Z,69.41
2023-02-13T02:17:25.106Z,68.98
2023-02-13T02:19:49.685Z,68.85
2023-02-13T02:22:03.216Z,68.82
2023-02-13T02:24:13.626Z,68.83
2023-02-13T02:26:53.128Z,68.93
2023-02-13T02:29:24.218Z,68.83
2023-02-13T02:32:03.756Z,68.93
2023-02-13T02:34:23.824Z,68.66
2023-02-13T02:36:37.215Z,69.15
2023-02-13T02:39:05.240Z,68.78
2023-02-13T02:41:42.338Z,68.80
2023-02-13T02:43:55.308Z,69.19
2023-02-13T02:46:32.594Z,69.24
2023-02-13T02:49:14.652Z,69.03
2023-02-13T02:51:23.897Z,68.79
2023-02-13T02:53:40.376Z,68.67
2023-02-13T02:55:50.789Z,68.27
2023-02-13T02:58:23.868Z,67.59
2023-02-13T03:00:45.087Z,67.71
2023-02-13T03:03:25.222Z,68.28
2023-02-13T03:05:49.856Z,69.01
2023-02-13T03:07:51.483Z,69.20
2023-02-13T03:10:15.866Z,69.05
2023-02-13T03:12:40.380Z,68.87
2023-02-13T03:14:42.746Z,68.30
2023-02-13T03:17:03.132Z,68.47
2023-02-13T03:19:23.887Z,68.15
2023-02-13T03:22:06.830Z,68.86
2023-02-13T03:24:21.974Z,68.47
2023-02-13T03:26:50.283Z,68.62
2023-02-13T03:29:30.072Z,67.53
2023-02-13T03:31:39.265Z,67.75
2023-02-13T03:34:06.590Z,67.54
2023-02-13T03:36:49.550Z,67.70
2023-02-13T03:39:34.032Z,67.93
2023-02-13T03:41:53.003Z,67.79
2023-02-13T03:44:00.490Z,67.74
2023-02-13T03:46:02.612Z,67.97
2023-02-13T03:48:32.251Z,67.97
2023-02-13T03:50:33.867Z,68.06
2023-02-13T03:52:45.118Z,67.81
2023-02-13T03:55:10.573Z,67.83
2023-02-13T03:57:34.131Z,67.08
2023-02-13T03:59:37.119Z,67.21
2023-02-13T04:01:39.417Z,67.24
2023-02-13T04:03:57.714Z,67.50
2023-02-13T04:06:13.215Z,67.77
2023-02-13T04:08:15.090Z,68.07
2023-02-13T04:10:18.188Z,67.87
2023-02-13T04:12:21.769Z,68.17
2023-02-13T04:14:44.310Z,68.00
2023-02-13T04:16:50.227Z,67.90
2023-02-13T04:18:52.466Z,67.47
2023-02-13T04:20:54.167Z,67.19
2023-02-13T04:22:55.882Z,67.81
2023-02-13T04:24:57.482Z,67.38
2023-02-13T04:26:59.399Z,67.77
2023-02-13T04:29:01.165Z,67.44
2023-02-13T04:31:02.857Z,67.52
2023-02-13T04:33:04.694Z,67.25
2023-02-13T04:35:06.591Z,67.23
2023-02-13T04:37:08.587Z,67.03
2023-02-13T04:39:11.529Z,66.98
2023-02-13T04:41:13.181Z,67.37
2023-02-13T04:43:14.830Z,67.10
2023-02-13T04:45:16.960Z,66.55
2023-02-13T04:47:18.615Z,67.23
2023-02-13T04:49:20.273Z,67.46
2023-02-13T04:51:21.982Z,67.23
2023-02-13T04:53:23.715Z,66.86
2023-02-13T04:55:26.879Z,67.52
2023-02-13T04:57:28.508Z,67.70
2023-02-13T04:59:30.125Z,68.70
2023-02-13T05:01:31.833Z,68.80
2023-02-13T05:03:33.483Z,69.47
2023-02-13T05:05:35.873Z,69.36
2023-02-13T05:07:37.524Z,68.74
2023-02-13T05:09:41.411Z,68.44
2023-02-13T05:11:43.355Z,68.97
2023-02-13T05:13:45.035Z,70.53
2023-02-13T05:15:48.242Z,70.77
2023-02-13T05:17:50.306Z,70.91
2023-02-13T05:19:51.871Z,71.80
2023-02-13T05:22:11.759Z,71.93
2023-02-13T05:24:13.412Z,70.73
2023-02-13T05:26:15.105Z,70.81
2023-02-13T05:28:35.684Z,70.82
2023-02-13T05:30:39.341Z,70.98
2023-02-13T05:32:43.290Z,71.40
2023-02-13T05:34:44.850Z,71.35
2023-02-13T05:36:46.795Z,71.17
2023-02-13T05:38:48.418Z,72.14
2023-02-13T05:40:50.017Z,71.85
2023-02-13T05:42:54.193Z,72.00
2023-02-13T05:44:55.741Z,72.14
2023-02-13T05:46:57.425Z,71.56
2023-02-13T05:48:59.092Z,71.59
2023-02-13T05:51:00.898Z,72.42
2023-02-13T05:53:02.490Z,72.49
2023-02-13T05:55:04.542Z,72.41
2023-02-13T05:57:06.108Z,71.84
2023-02-13T05:59:07.694Z,71.28
2023-02-13T06:01:09.308Z,71.26
2023-02-13T06:03:10.946Z,72.01
2023-02-13T06:05:12.595Z,72.77
2023-02-13T06:07:14.230Z,73.27
2023-02-13T06:09:15.858Z,72.66
2023-02-13T06:11:17.726Z,72.58
2023-02-13T06:13:19.394Z,72.35
2023-02-13T06:15:20.968Z,72.91
2023-02-13T06:17:22.624Z,72.78
2023-02-13T06:19:24.281Z,72.02
2023-02-13T06:21:25.990Z,71.10
2023-02-13T06:23:27.877Z,70.55
2023-02-13T06:25:29.580Z,71.17
2023-02-13T06:27:31.362Z,71.17
2023-02-13T06:29:33.152Z,72.00
2023-02-13T06:31:35.089Z,71.60
2023-02-13T06:33:36.754Z,72.07
2023-02-13T06:35:38.336Z,72.58
2023-02-13T06:37:40.140Z,72.66
2023-02-13T06:39:42.862Z,72.81
2023-02-13T06:41:44.497Z,72.36
2023-02-13T06:43:46.343Z,71.47
2023-02-13T06:45:48.052Z,71.46
2023-02-13T06:47:50.269Z,71.70
2023-02-13T06:49:51.952Z,71.85
2023-02-13T06:51:53.611Z,71.89
2023-02-13T06:53:55.219Z,71.98
2023-02-13T06:55:57.718Z,70.99
2023-02-13T06:57:59.347Z,69.42
2023-02-13T07:00:04.584Z,69.15
2023-02-13T07:02:06.281Z,68.95
2023-02-13T07:04:07.948Z,68.13
2023-02-13T07:06:09.633Z,67.28
2023-02-13T07:08:12.565Z,66.87
2023-02-13T07:10:14.904Z,66.34
2023-02-13T07:12:16.482Z,66.38
2023-02-13T07:14:18.146Z,66.05
2023-02-13T07:16:19.760Z,66.20
2023-02-13T07:18:21.405Z,66.36
2023-02-13T07:20:23.468Z,66.47
2023-02-13T07:22:25.180Z,66.18
2023-02-13T07:24:26.805Z,66.38
2023-02-13T07:26:28.486Z,66.60
2023-02-13T07:28:30.581Z,66.39
2023-02-13T07:30:33.459Z,67.43
2023-02-13T07:32:35.172Z,67.77
2023-02-13T07:34:36.745Z,68.75
2023-02-13T07:36:38.301Z,69.49
2023-02-13T07:38:39.950Z,69.06
2023-02-13T07:40:41.701Z,68.80
2023-02-13T07:42:43.283Z,68.33
2023-02-13T07:44:44.877Z,69.13
2023-02-13T07:46:46.579Z,68.20
2023-02-13T07:48:48.300Z,68.33
2023-02-13T07:50:50.341Z,68.04
2023-02-13T07:52:55.580Z,67.52
2023-02-13T07:54:57.174Z,66.55
2023-02-13T07:56:59.541Z,66.74
2023-02-13T07:59:01.217Z,66.41
2023-02-13T08:01:07.718Z,66.22
2023-02-13T08:03:09.757Z,65.82
2023-02-13T08:05:11.368Z,66.45
2023-02-13T08:07:14.320Z,67.48
2023-02-13T08:09:40.770Z,68.70
2023-02-13T08:11:54.785Z,68.35
2023-02-13T08:13:56.389Z,68.41
2023-02-13T08:15:58.499Z,68.09
2023-02-13T08:18:00.380Z,67.21
2023-02-13T08:20:02.068Z,66.95
2023-02-13T08:22:04.051Z,67.90
2023-02-13T08:24:05.861Z,69.32
2023-02-13T08:26:07.553Z,69.46
2023-02-13T08:28:09.317Z,70.03
2023-02-13T08:30:11.570Z,68.85
2023-02-13T08:32:13.331Z,69.48
2023-02-13T08:34:15.012Z,69.95
2023-02-13T08:36:16.727Z,69.79
2023-02-13T08:38:18.418Z,69.16
2023-02-13T08:40:20.226Z,70.39
2023-02-13T08:42:21.800Z,70.21
2023-02-13T08:44:23.356Z,69.64
2023-02-13T08:46:25.138Z,70.13
2023-02-13T08:48:27.458Z,70.08
2023-02-13T08:50:29.084Z,69.18
2023-02-13T08:52:30.793Z,68.08
2023-02-13T08:54:35.404Z,68.82
2023-02-13T08:56:36.989Z,70.47
2023-02-13T08:58:38.749Z,70.68
2023-02-13T09:00:40.324Z,70.50
2023-02-13T09:02:41.908Z,70.20
2023-02-13T09:04:43.602Z,70.02
2023-02-13T09:06:45.439Z,70.61
2023-02-13T09:08:47.052Z,70.83
2023-02-13T09:10:56.715Z,70.01
2023-02-13T09:12:58.572Z,69.78
2023-02-13T09:15:00.169Z,68.41
2023-02-13T09:17:03.286Z,67.23
2023-02-13T09:19:05.208Z,66.81
2023-02-13T09:21:09.525Z,67.41
2023-02-13T09:23:11.183Z,68.23
2023-02-13T09:25:12.767Z,68.37
2023-02-13T09:27:14.387Z,67.05
2023-02-13T09:29:15.953Z,66.94
2023-02-13T09:31:20.393Z,65.81
2023-02-13T09:33:22.180Z,66.17
2023-02-13T09:35:24.365Z,66.23
2023-02-13T09:37:27.114Z,65.13
2023-02-13T09:39:29.154Z,64.81
2023-02-13T09:41:42.172Z,64.30
2023-02-13T09:43:54.907Z,64.95
2023-02-13T09:46:01.554Z,66.34
2023-02-13T09:48:04.973Z,67.50
2023-02-13T09:50:17.122Z,68.59
2023-02-13T09:52:18.941Z,69.55
2023-02-13T09:54:20.730Z,69.50
2023-02-13T09:56:40.482Z,66.46
2023-02-13T09:58:46.334Z,66.68
2023-02-13T10:00:58.046Z,66.01
2023-02-13T10:02:59.650Z,65.25
2023-02-13T10:05:17.215Z,66.07
2023-02-13T10:07:39.870Z,65.30
2023-02-13T10:10:02.339Z,63.35
2023-02-13T10:12:23.050Z,63.88
2023-02-13T10:14:32.766Z,65.37
2023-02-13T10:16:53.312Z,64.77
2023-02-13T10:18:59.925Z,63.87
2023-02-13T10:21:03.051Z,63.49
2023-02-13T10:23:29.439Z,64.32
2023-02-13T10:25:42.764Z,62.83
2023-02-13T10:27:50.128Z,61.76
2023-02-13T10:30:05.721Z,60.87
2023-02-13T10:32:13.831Z,60.18
2023-02-13T10:34:17.288Z,60.67
2023-02-13T10:36:31.713Z,59.80
2023-02-13T10:38:34.145Z,59.99
2023-02-13T10:40:40.766Z,60.02
2023-02-13T10:42:42.349Z,60.63
2023-02-13T10:44:55.450Z,61.36
2023-02-13T10:46:59.638Z,62.47
2023-02-13T10:49:10.992Z,62.36
2023-02-13T10:51:30.730Z,61.88
2023-02-13T10:53:47.573Z,61.34
2023-02-13T10:55:55.429Z,60.43
2023-02-13T10:58:28.120Z,61.12
2023-02-13T11:00:43.170Z,60.62
2023-02-13T11:02:45.064Z,60.46
2023-02-13T11:04:46.964Z,59.38
2023-02-13T11:06:59.555Z,57.64
2023-02-13T11:09:01.174Z,57.85
2023-02-13T11:11:02.799Z,57.96
2023-02-13T11:13:22.232Z,56.84
2023-02-13T11:15:28.009Z,55.67
2023-02-13T11:17:36.443Z,55.13
2023-02-13T11:19:40.739Z,55.15
2023-02-13T11:21:42.430Z,55.88
2023-02-13T11:23:53.803Z,56.94
2023-02-13T11:26:00.871Z,56.57
2023-02-13T11:28:11.530Z,55.04
2023-02-13T11:30:46.730Z,53.61
2023-02-13T11:32:59.473Z,53.68
2023-02-13T11:35:27.026Z,52.43
2023-02-13T11:37:30.332Z,51.53
2023-02-13T11:39:31.910Z,52.67
2023-02-13T11:41:44.036Z,53.96
2023-02-13T11:43:51.868Z,55.71
2023-02-13T11:46:09.450Z,56.70
2023-02-13T11:48:21.896Z,56.04
2023-02-13T11:50:32.365Z,56.81
2023-02-13T11:52:35.689Z,56.69
2023-02-13T11:54:41.182Z,56.57
2023-02-13T11:57:04.041Z,56.54
2023-02-13T11:59:13.260Z,56.04
2023-02-13T12:01:20.963Z,54.08
2023-02-13T12:03:22.664Z,53.87
2023-02-13T12:05:26.993Z,53.65
2023-02-13T12:07:30.657Z,53.16
2023-02-13T12:09:32.498Z,52.41
2023-02-13T12:11:46.035Z,52.89
2023-02-13T12:13:48.309Z,51.66
2023-02-13T12:15:58.072Z,51.53
2023-02-13T12:18:09.010Z,52.83
2023-02-13T12:20:15.704Z,52.43
2023-02-13T12:22:28.944Z,50.77
2023-02-13T12:24:41.618Z,50.04
2023-02-13T12:26:46.774Z,50.08
2023-02-13T12:29:09.016Z,48.94
2023-02-13T12:31:19.819Z,48.72
2023-02-13T12:33:36.235Z,48.31
2023-02-13T12:35:50.220Z,48.21
2023-02-13T12:38:05.168Z,48.50
2023-02-13T12:40:30.644Z,49.67
2023-02-13T12:42:41.400Z,49.82
2023-02-13T12:45:03.456Z,50.08
2023-02-13T12:47:17.239Z,50.77
2023-02-13T12:49:44.229Z,49.83
2023-02-13T12:51:51.671Z,50.26
2023-02-13T12:54:02.762Z,49.47
2023-02-13T12:56:19.222Z,49.73
2023-02-13T12:59:07.706Z,49.27
2023-02-13T13:01:27.940Z,50.05
2023-02-13T13:03:48.010Z,49.89
2023-02-13T13:06:12.363Z,49.07
2023-02-13T13:08:29.145Z,47.89
2023-02-13T13:10:36.557Z,48.82
2023-02-13T13:13:02.958Z,49.06
2023-02-13T13:15:17.329Z,49.05
2023-02-13T13:17:43.065Z,49.26
2023-02-13T13:19:45.120Z,49.57
2023-02-13T13:22:11.177Z,48.82
2023-02-13T13:24:29.665Z,48.79
2023-02-13T13:26:37.436Z,49.09
2023-02-13T13:28:42.162Z,49.08
2023-02-13T13:30:44.188Z,49.39
2023-02-13T13:32:46.478Z,50.19
2023-02-13T13:34:48.296Z,50.14
2023-02-13T13:37:11.978Z,49.94
2023-02-13T13:39:31.841Z,49.45
2023-02-13T13:42:11.224Z,49.32
2023-02-13T13:44:26.357Z,49.66
2023-02-13T13:46:46.831Z,49.90
2023-02-13T13:49:15.390Z,49.08
2023-02-13T13:51:18.043Z,48.86
2023-02-13T13:53:23.384Z,48.85
2023-02-13T13:55:47.913Z,49.96
2023-02-13T13:58:00.120Z,49.35
2023-02-13T14:00:26.739Z,49.14
2023-02-13T14:02:38.870Z,48.72
2023-02-13T14:04:43.768Z,49.43
2023-02-13T14:06:45.523Z,49.88
2023-02-13T14:08:54.324Z,49.98
2023-02-13T14:11:02.103Z,49.88
2023-02-13T14:13:04.235Z,49.79
2023-02-13T14:15:06.175Z,50.33
2023-02-13T14:17:14.155Z,49.85
2023-02-13T14:19:33.650Z,50.06
2023-02-13T14:21:35.455Z,49.97
2023-02-13T14:23:42.936Z,49.71
2023-02-13T14:25:45.517Z,49.96
2023-02-13T14:28:02.261Z,49.48
2023-02-13T14:30:05.774Z,49.66
2023-02-13T14:32:16.411Z,49.44
2023-02-13T14:34:23.140Z,49.81
2023-02-13T14:36:32.301Z,48.93
2023-02-13T14:38:34.375Z,48.72
2023-02-13T14:40:48.004Z,49.29
2023-02-13T14:43:00.138Z,49.96
2023-02-13T14:45:04.971Z,50.11
2023-02-13T14:47:32.081Z,50.45
2023-02-13T14:49:36.968Z,50.01
2023-02-13T14:51:46.775Z,50.58
2023-02-13T14:53:53.106Z,49.89
2023-02-13T14:56:15.191Z,50.43
2023-02-13T14:58:24.311Z,51.02
2023-02-13T15:00:30.653Z,51.21
2023-02-13T15:02:36.022Z,50.23
2023-02-13T15:04:37.540Z,50.39
2023-02-13T15:06:42.472Z,50.40
2023-02-13T15:08:50.740Z,50.85
2023-02-13T15:10:54.390Z,51.38
2023-02-13T15:13:01.238Z,50.85
2023-02-13T15:15:22.193Z,51.28
2023-02-13T15:17:29.987Z,51.21
2023-02-13T15:19:32.852Z,51.08
2023-02-13T15:21:34.515Z,51.41
2023-02-13T15:23:36.272Z,51.52
2023-02-13T15:25:39.888Z,51.55
2023-02-13T15:27:43.548Z,51.79
2023-02-13T15:30:04.408Z,51.93
2023-02-13T15:32:18.439Z,51.74
2023-02-13T15:34:32.353Z,51.76
2023-02-13T15:36:39.763Z,51.58
2023-02-13T15:38:41.434Z,52.52
2023-02-13T15:40:44.021Z,52.71
2023-02-13T15:42:46.674Z,53.04
2023-02-13T15:44:51.294Z,53.24
2023-02-13T15:46:54.502Z,53.58
2023-02-13T15:48:58.948Z,53.58
2023-02-13T15:51:00.968Z,53.51
2023-02-13T15:53:05.191Z,54.03
2023-02-13T15:55:06.976Z,54.09
2023-02-13T15:57:11.454Z,54.15
2023-02-13T15:59:14.099Z,54.23
2023-02-13T16:01:17.043Z,54.34
2023-02-13T16:03:18.997Z,54.71
2023-02-13T16:05:37.508Z,54.62
2023-02-13T16:07:58.538Z,54.49
2023-02-13T16:10:29.400Z,54.66
2023-02-13T16:12:31.012Z,54.84
2023-02-13T16:14:36.817Z,54.71
2023-02-13T16:17:05.450Z,54.53
2023-02-13T16:19:07.067Z,54.82
2023-02-13T16:21:09.308Z,54.58
2023-02-13T16:23:17.267Z,54.26
2023-02-13T16:25:34.490Z,54.54
2023-02-13T16:27:36.598Z,54.17
2023-02-13T16:29:38.208Z,54.69
2023-02-13T16:31:40.719Z,54.24
2023-02-13T16:33:43.065Z,54.83
2023-02-13T16:35:55.384Z,54.73
2023-02-13T16:38:02.403Z,54.63
2023-02-13T16:40:32.321Z,55.08
2023-02-13T16:42:33.886Z,54.50
2023-02-13T16:44:35.523Z,54.34
2023-02-13T16:46:39.718Z,54.06
2023-02-13T16:48:56.556Z,54.38
2023-02-13T16:50:58.440Z,54.69
2023-02-13T16:53:02.613Z,54.56
2023-02-13T16:55:05.165Z,54.17
2023-02-13T16:57:33.750Z,53.99
2023-02-13T16:59:47.581Z,54.07
2023-02-13T17:02:02.241Z,53.66
2023-02-13T17:04:15.658Z,54.02
2023-02-13T17:06:17.249Z,54.26
2023-02-13T17:08:18.857Z,54.55
2023-02-13T17:10:20.532Z,53.91
2023-02-13T17:12:22.349Z,53.72
2023-02-13T17:14:23.999Z,54.02
2023-02-13T17:16:25.748Z,54.14
2023-02-13T17:18:27.792Z,54.57
2023-02-13T17:20:32.252Z,53.90
2023-02-13T17:22:39.540Z,54.30
2023-02-13T17:24:41.265Z,54.52
2023-02-13T17:26:42.958Z,54.79
2023-02-13T17:28:44.495Z,53.92
2023-02-13T17:30:47.062Z,54.75
2023-02-13T17:32:49.403Z,54.66
2023-02-13T17:34:51.151Z,54.36
2023-02-13T17:36:52.741Z,54.96
2023-02-13T17:38:54.353Z,54.87
2023-02-13T17:40:56.295Z,54.60
2023-02-13T17:42:59.232Z,54.51
2023-02-13T17:45:00.934Z,54.54
2023-02-13T17:47:02.738Z,54.48
2023-02-13T17:49:04.596Z,54.44
2023-02-13T17:51:06.333Z,54.09
2023-02-13T17:53:22.413Z,54.14
2023-02-13T17:55:26.134Z,54.35
2023-02-13T17:57:27.767Z,54.59
2023-02-13T17:59:29.329Z,55.07
2023-02-13T18:01:30.954Z,54.64
2023-02-13T18:03:32.555Z,54.99
2023-02-13T18:05:34.236Z,54.73
2023-02-13T18:07:36.231Z,54.87
2023-02-13T18:09:38.003Z,54.29
2023-02-13T18:11:39.578Z,54.60
2023-02-13T18:13:47.966Z,54.23
2023-02-13T18:15:49.595Z,54.53
2023-02-13T18:17:51.388Z,54.29
2023-02-13T18:19:53.140Z,54.69
2023-02-13T18:21:54.714Z,53.74
2023-02-13T18:23:56.577Z,54.08
2023-02-13T18:26:05.943Z,54.35
2023-02-13T18:28:07.554Z,54.36
2023-02-13T18:30:11.153Z,53.97
2023-02-13T18:32:12.982Z,54.01
2023-02-13T18:34:33.430Z,54.96
2023-02-13T18:36:34.948Z,54.14
2023-02-13T18:38:36.534Z,54.02
2023-02-13T18:40:38.139Z,54.96
2023-02-13T18:42:39.787Z,54.68
2023-02-13T18:44:41.788Z,54.52
2023-02-13T18:46:43.681Z,54.51
2023-02-13T18:48:45.261Z,54.16
2023-02-13T18:50:46.841Z,54.61
2023-02-13T18:52:48.498Z,54.49
2023-02-13T18:54:50.279Z,54.67
2023-02-13T18:56:52.173Z,54.00
2023-02-13T18:58:53.894Z,54.27
2023-02-13T19:00:55.806Z,54.64
2023-02-13T19:02:59.011Z,53.79
2023-02-13T19:05:01.288Z,54.52
2023-02-13T19:07:02.927Z,53.69
2023-02-13T19:09:04.591Z,54.25
2023-02-13T19:11:08.292Z,54.46
2023-02-13T19:13:09.894Z,54.00
2023-02-13T19:15:11.592Z,54.03
2023-02-13T19:17:13.210Z,53.45
2023-02-13T19:19:14.826Z,53.52
2023-02-13T19:21:16.648Z,54.01
2023-02-13T19:23:18.252Z,53.08
2023-02-13T19:25:20.074Z,53.50
2023-02-13T19:27:21.669Z,53.21
2023-02-13T19:29:23.408Z,52.97
2023-02-13T19:31:30.703Z,52.74
2023-02-13T19:33:32.738Z,53.01
2023-02-13T19:35:34.388Z,52.50
2023-02-13T19:37:43.875Z,52.80
2023-02-13T19:39:46.086Z,52.78
2023-02-13T19:41:47.713Z,53.14
2023-02-13T19:43:56.077Z,53.30
2023-02-13T19:45:57.696Z,53.10
2023-02-13T19:47:59.353Z,52.92
2023-02-13T19:50:00.903Z,53.33
2023-02-13T19:52:03.696Z,53.71
2023-02-13T19:54:07.182Z,53.39
2023-02-13T19:56:09.527Z,53.55
2023-02-13T19:58:11.138Z,53.48
2023-02-13T20:00:13.391Z,53.04
2023-02-13T20:02:15.544Z,53.82
2023-02-13T20:04:17.191Z,53.24
2023-02-13T20:06:24.926Z,53.16
2023-02-13T20:08:26.513Z,53.07
2023-02-13T20:10:28.075Z,52.49
2023-02-13T20:12:29.717Z,52.42
2023-02-13T20:14:31.285Z,52.62
2023-02-13T20:16:35.464Z,52.17
2023-02-13T20:18:37.886Z,52.01
2023-02-13T20:20:39.925Z,51.72
2023-02-13T20:22:41.539Z,52.07
2023-02-13T20:24:43.527Z,52.39
2023-02-13T20:26:45.146Z,52.61
2023-02-13T20:28:48.107Z,51.90
2023-02-13T20:30:49.935Z,51.88
2023-02-13T20:32:51.550Z,51.53
2023-02-13T20:34:59.877Z,51.83
2023-02-13T20:37:01.877Z,52.04
2023-02-13T20:39:06.135Z,52.27
2023-02-13T20:41:12.103Z,51.88
2023-02-13T20:43:13.700Z,52.13
2023-02-13T20:45:15.451Z,52.50
2023-02-13T20:47:17.180Z,52.82
2023-02-13T20:49:21.919Z,52.48
2023-02-13T20:51:23.678Z,52.89
2023-02-13T20:53:25.704Z,52.83
2023-02-13T20:55:27.280Z,53.53
2023-02-13T20:57:28.903Z,53.57
2023-02-13T20:59:30.552Z,54.00
2023-02-13T21:01:35.638Z,53.99
2023-02-13T21:03:37.296Z,54.02
2023-02-13T21:05:38.910Z,54.06
2023-02-13T21:07:40.660Z,53.53
2023-02-13T21:09:42.315Z,54.17
2023-02-13T21:11:44.724Z,54.05
2023-02-13T21:13:46.816Z,54.23
2023-02-13T21:15:50.602Z,54.50
2023-02-13T21:17:52.276Z,54.21
2023-02-13T21:19:53.872Z,54.24
2023-02-13T21:21:55.434Z,54.77
2023-02-13T21:23:59.570Z,54.33
2023-02-13T21:26:05.621Z,54.79
2023-02-13T21:28:07.353Z,55.13
2023-02-13T21:30:09.524Z,55.21
2023-02-13T21:32:11.281Z,55.01
2023-02-13T21:34:13.834Z,56.30
2023-02-13T21:36:15.730Z,55.48
2023-02-13T21:38:19.411Z,55.61
2023-02-13T21:40:21.259Z,55.58
2023-02-13T21:42:22.879Z,55.64
2023-02-13T21:44:24.683Z,55.66
2023-02-13T21:46:28.896Z,55.47
2023-02-13T21:48:30.460Z,55.93
2023-02-13T21:50:32.553Z,55.25
2023-02-13T21:52:35.284Z,55.76
2023-02-13T21:54:37.100Z,56.45
2023-02-13T21:56:40.416Z,56.08
2023-02-13T21:58:43.105Z,55.64
2023-02-13T22:00:44.714Z,55.80
2023-02-13T22:02:46.259Z,56.26
2023-02-13T22:04:47.833Z,56.04
2023-02-13T22:06:51.416Z,56.43
2023-02-13T22:09:01.510Z,56.52
2023-02-13T22:11:03.197Z,56.75
2023-02-13T22:13:04.896Z,56.91
2023-02-13T22:15:06.708Z,56.98
2023-02-13T22:17:08.584Z,56.40
2023-02-13T22:19:13.624Z,56.97
2023-02-13T22:21:18.556Z,56.92
2023-02-13T22:23:20.408Z,57.09
2023-02-13T22:25:22.174Z,57.20
2023-02-13T22:27:23.816Z,57.16
2023-02-13T22:29:27.054Z,56.77
2023-02-13T22:31:28.815Z,56.75
2023-02-13T22:33:30.427Z,56.74
2023-02-13T22:35:32.050Z,56.84
2023-02-13T22:37:34.205Z,57.64
2023-02-13T22:39:35.826Z,57.47
2023-02-13T22:41:37.909Z,57.88
2023-02-13T22:43:39.633Z,58.16
2023-02-13T22:45:41.278Z,57.92
2023-02-13T22:47:42.901Z,58.20
2023-02-13T22:49:44.500Z,57.56
2023-02-13T22:51:46.096Z,57.81
2023-02-13T22:53:48.561Z,58.00
2023-02-13T22:55:50.280Z,58.02
2023-02-13T22:57:54.429Z,58.16
2023-02-13T22:59:56.345Z,57.88
2023-02-13T23:01:57.919Z,57.93
2023-02-13T23:04:00.029Z,58.07
2023-02-13T23:06:04.014Z,58.41
2023-02-13T23:08:05.524Z,58.38
2023-02-13T23:10:07.724Z,57.95
2023-02-13T23:12:27.754Z,57.65
2023-02-13T23:14:29.381Z,58.38
2023-02-13T23:16:54.040Z,58.24
2023-02-13T23:18:56.193Z,58.55
2023-02-13T23:21:04.571Z,58.35
2023-02-13T23:23:06.184Z,57.84
2023-02-13T23:25:07.948Z,57.60
2023-02-13T23:27:09.591Z,57.48
2023-02-13T23:29:11.272Z,57.42
2023-02-13T23:31:12.923Z,57.33
2023-02-13T23:33:14.611Z,56.82
2023-02-13T23:35:16.806Z,56.87
2023-02-13T23:37:18.383Z,56.71
2023-02-13T23:39:21.094Z,56.32
2023-02-13T23:41:22.888Z,56.39
2023-02-13T23:43:24.546Z,57.00
2023-02-13T23:45:26.095Z,57.40
2023-02-13T23:47:27.772Z,57.70
2023-02-13T23:49:29.427Z,56.98
2023-02-13T23:51:31.018Z,56.93
2023-02-13T23:53:35.673Z,56.76
2023-02-13T23:55:37.290Z,56.71
2023-02-13T23:57:38.935Z,56.71
2023-02-13T23:59:40.759Z,56.52
